Nearby METAR Reports

 

KSJC - San Jose, California, USA
Distance from station: NØ 14km
Oppdatert: 05/08/2021 21:41
unable to load KSJC data RC=
unable to load KSJC data RC=
 
KNUQ - Moffett Nas/Mtn, California, USA
Distance from station: N 14km
Oppdatert: 05/08/2021 21:35
Klart
Klart
 Vind fra NNV
Vind: NNV 15 km/h
Temperatur: 21°C
Duggpunkt: 13°C
Fuktighet: 60%
Barometer: 1016.9 hPa
Clouds: Klart
Visibility: 16 km
2021/08/05 19:35 KNUQ 051935Z AUTO 34008KT 10SM CLR 21/13 A3003 RMK AO2
 
KPAO - Palo Alto, California, USA
Distance from station: NNV 23km
Oppdatert: 05/08/2021 20:47
Few Clouds
Few Clouds
 Vind fra NNØ
Vind: NNØ 17 km/h
Temperatur: 21°C
Duggpunkt: 14°C
Fuktighet: 64%
Barometer: 1017.3 hPa
Clouds: Few Clouds
Visibility: 16 km
Cloud details: Few Clouds 792 m
2021/08/05 18:47 KPAO 051847Z 02009KT 10SM FEW026 21/14 A3004 RMK PAEW S TXY Z
KRHV - San Jose/Reid, California, USA
Distance from station: ØNØ 19km
Oppdatert: 05/08/2021 20:47
Klart
Klart
 Vind fra NV
Vind: NV 11 km/h
Temperatur: 23°C
Duggpunkt: 12°C
Fuktighet: 50%
Barometer: 1017.3 hPa
Clouds: Klart
Visibility: 16 km
2021/08/05 18:47 KRHV 051847Z 31006KT 10SM SKC 23/12 A3004
 
KOAK - Oakland, California, USA
Distance from station: NNV 50km
Oppdatert: 05/08/2021 20:53
Hovedsaklig skyet
Hovedsaklig skyet
 Vind fra V
Vind: V 20 km/h
Temperatur: 17°C
Duggpunkt: 12°C
Fuktighet: 73%
Barometer: 1017.9 hPa
Clouds: Hovedsaklig skyet
Visibility: 16 km
Cloud details: Few Clouds 274 m
Delvis skyet 457 m
Hovedsaklig skyet 518 m
2021/08/05 18:53 KOAK 051853Z 27011KT 10SM FEW009 SCT015 BKN017 17/12 A3006 RMK AO2 SLP178 T01720122
KSQL - San Carlos Airpo, California, USA
Distance from station: NV 34km
Oppdatert: 05/08/2021 18:49
NOT Current
Hovedsaklig skyet
Hovedsaklig skyet
 Vind fra V
Vind: V 19 km/h, Vindkast: 28 km/h
Temperatur: 17°C
Duggpunkt: 13°C
Fuktighet: 77%
Barometer: 1017.6 hPa
Clouds: Hovedsaklig skyet
Visibility: 16 km
Cloud details: Hovedsaklig skyet 518 m
2021/08/05 16:49 KSQL 051649Z 26010G15KT 10SM BKN017 17/13 A3005
 
KSFO - San Francisco, California, USA
Distance from station: NV 49km
Oppdatert: 05/08/2021 20:56
Hovedsaklig skyet
Hovedsaklig skyet
 Vind fra VSV
Vind: VSV 20 km/h
Temperatur: 16°C
Duggpunkt: 12°C
Fuktighet: 77%
Barometer: 1017.6 hPa
Clouds: Hovedsaklig skyet
Visibility: 16 km
Cloud details: Few Clouds 61 m
Hovedsaklig skyet 366 m
2021/08/05 18:56 KSFO 051856Z 24011KT 10SM FEW002 BKN012 16/12 A3005 RMK AO2 SLP176 T01610117 $
KE16 - San Martin, California, USA
Distance from station: ØSØ 43km
Oppdatert: 05/08/2021 21:35
Klart
Klart
 Vind fra SSØ
Vind: SSØ 9 km/h
Temperatur: 23°C
Duggpunkt: 13°C
Fuktighet: 53%
Barometer: 1016.9 hPa
Clouds: Klart
Visibility: 16 km
2021/08/05 19:35 KE16 051935Z AUTO 15005KT 10SM CLR 23/13 A3003 RMK AO2
 
KWVI - Watsonville, California, USA
Distance from station: SSØ 44km
Oppdatert: 05/08/2021 21:00
Overskyet
Overskyet
 Vind fra varies
Vind: varies 9 km/h
Temperatur: 19°C
Duggpunkt: 14°C
Fuktighet: 73%
Barometer: 1017.9 hPa
Clouds: Overskyet
Visibility: 16 km
Cloud details: Overskyet 457 m
2021/08/05 19:00 KWVI 051900Z AUTO VRB05KT 10SM OVC015 19/14 A3006 RMK AO2 T01940139
KHAF - Half Moon Bay, California, USA
Distance from station: VNV 50km
Oppdatert: 09/07/2021 16:35
NOT Current
Lett regn, Klart
Lett regn, Klart
 
Temperatur: 13°C
Duggpunkt: 12°C
Fuktighet: 94%
Barometer: 1012.9 hPa
Oversikt: Lett regn
Clouds: Klart
Visibility: 6 km
2021/07/09 14:35 KHAF 091435Z AUTO 4SM -RA CLR 13/12 A2991 RMK AO2
 
KHWD - Hayward, California, USA
Distance from station: N 44km
Oppdatert: 05/08/2021 21:19
Few Clouds
Few Clouds
 Vind fra V
Vind: V 20 km/h
Temperatur: 18°C
Duggpunkt: 13°C
Fuktighet: 73%
Barometer: 1017.6 hPa
Clouds: Few Clouds
Visibility: 16 km
Cloud details: Few Clouds 366 m
2021/08/05 19:19 KHWD 051919Z 28011KT 10SM FEW012 18/13 A3005 RMK AO2 T01830128
KLVK - Livermore, California, USA
Distance from station: NNØ 51km
Oppdatert: 05/08/2021 20:53
Klart
Klart
 Vind fra V
Vind: V 17 km/h
Temperatur: 22°C
Duggpunkt: 12°C
Fuktighet: 53%
Barometer: 1016.6 hPa
Clouds: Klart
Visibility: 16 km
2021/08/05 18:53 KLVK 051853Z 27009KT 10SM CLR 22/12 A3002 RMK AO2 SLP163 T02220122